sensor_id;sensor_type;location;lat;lon;timestamp;pressure;altitude;pressure_sealevel;temperature;humidity
71974;BME280;59840;52.122;5.404;2023-07-24T00:01:36;100547.16;;;18.04;100.00
71974;BME280;59840;52.122;5.404;2023-07-24T00:04:05;100554.66;;;18.02;100.00
71974;BME280;59840;52.122;5.404;2023-07-24T00:06:32;100554.00;;;17.97;100.00
71974;BME280;59840;52.122;5.404;2023-07-24T00:08:58;100554.31;;;17.95;100.00
71974;BME280;59840;52.122;5.404;2023-07-24T00:11:27;100551.03;;;17.98;100.00
71974;BME280;59840;52.122;5.404;2023-07-24T00:14:05;100552.13;;;17.97;100.00
71974;BME280;59840;52.122;5.404;2023-07-24T00:17:00;100544.72;;;17.94;100.00
71974;BME280;59840;52.122;5.404;2023-07-24T00:19:34;100543.16;;;17.93;100.00
71974;BME280;59840;52.122;5.404;2023-07-24T00:22:08;100538.09;;;17.92;100.00
71974;BME280;59840;52.122;5.404;2023-07-24T00:24:39;100535.84;;;17.85;100.00
71974;BME280;59840;52.122;5.404;2023-07-24T00:27:13;100544.16;;;17.84;100.00
71974;BME280;59840;52.122;5.404;2023-07-24T00:29:42;100524.78;;;17.78;99.98
71974;BME280;59840;52.122;5.404;2023-07-24T00:32:09;100526.34;;;17.79;99.97
71974;BME280;59840;52.122;5.404;2023-07-24T00:34:58;100530.72;;;17.75;100.00
71974;BME280;59840;52.122;5.404;2023-07-24T00:37:40;100528.16;;;17.70;100.00
71974;BME280;59840;52.122;5.404;2023-07-24T00:40:32;100530.31;;;17.68;100.00
71974;BME280;59840;52.122;5.404;2023-07-24T00:43:29;100528.78;;;17.67;100.00
71974;BME280;59840;52.122;5.404;2023-07-24T00:46:04;100529.53;;;17.67;100.00
71974;BME280;59840;52.122;5.404;2023-07-24T00:48:44;100519.66;;;17.68;100.00
71974;BME280;59840;52.122;5.404;2023-07-24T00:51:15;100508.69;;;17.69;100.00
71974;BME280;59840;52.122;5.404;2023-07-24T00:54:10;100505.84;;;17.66;100.00
71974;BME280;59840;52.122;5.404;2023-07-24T00:57:03;100502.09;;;17.67;100.00
71974;BME280;59840;52.122;5.404;2023-07-24T01:00:43;100488.81;;;17.62;100.00
71974;BME280;59840;52.122;5.404;2023-07-24T01:03:33;100484.75;;;17.64;100.00
71974;BME280;59840;52.122;5.404;2023-07-24T01:06:30;100488.53;;;17.63;100.00
71974;BME280;59840;52.122;5.404;2023-07-24T01:09:17;100490.00;;;17.56;100.00
71974;BME280;59840;52.122;5.404;2023-07-24T01:12:13;100499.09;;;17.55;100.00
71974;BME280;59840;52.122;5.404;2023-07-24T01:18:09;100496.13;;;17.56;100.00
71974;BME280;59840;52.122;5.404;2023-07-24T01:21:13;100488.91;;;17.57;100.00
71974;BME280;59840;52.122;5.404;2023-07-24T01:27:07;100479.63;;;17.54;100.00
71974;BME280;59840;52.122;5.404;2023-07-24T01:29:59;100480.72;;;17.53;100.00
71974;BME280;59840;52.122;5.404;2023-07-24T01:33:09;100487.94;;;17.53;100.00
71974;BME280;59840;52.122;5.404;2023-07-24T01:41:23;100478.47;;;17.47;100.00
71974;BME280;59840;52.122;5.404;2023-07-24T01:47:27;100473.72;;;17.43;100.00
71974;BME280;59840;52.122;5.404;2023-07-24T01:49:59;100467.88;;;17.41;100.00
71974;BME280;59840;52.122;5.404;2023-07-24T01:52:32;100457.22;;;17.41;100.00
71974;BME280;59840;52.122;5.404;2023-07-24T01:55:05;100453.56;;;17.37;100.00
71974;BME280;59840;52.122;5.404;2023-07-24T01:57:32;100448.97;;;17.29;100.00
71974;BME280;59840;52.122;5.404;2023-07-24T02:00:02;100450.13;;;17.23;100.00
71974;BME280;59840;52.122;5.404;2023-07-24T02:02:33;100449.94;;;17.20;100.00
71974;BME280;59840;52.122;5.404;2023-07-24T02:05:07;100444.81;;;17.23;100.00
71974;BME280;59840;52.122;5.404;2023-07-24T02:07:39;100445.31;;;17.25;100.00
71974;BME280;59840;52.122;5.404;2023-07-24T02:10:08;100442.84;;;17.29;100.00
71974;BME280;59840;52.122;5.404;2023-07-24T02:12:36;100450.25;;;17.32;100.00
71974;BME280;59840;52.122;5.404;2023-07-24T02:15:06;100450.34;;;17.27;100.00
71974;BME280;59840;52.122;5.404;2023-07-24T02:17:41;100446.38;;;17.24;100.00
71974;BME280;59840;52.122;5.404;2023-07-24T02:20:09;100447.19;;;17.25;100.00
71974;BME280;59840;52.122;5.404;2023-07-24T02:22:54;100439.97;;;17.25;100.00
71974;BME280;59840;52.122;5.404;2023-07-24T02:25:30;100431.19;;;17.25;100.00
71974;BME280;59840;52.122;5.404;2023-07-24T02:27:59;100427.91;;;17.28;100.00
71974;BME280;59840;52.122;5.404;2023-07-24T02:30:51;100429.19;;;17.30;100.00
71974;BME280;59840;52.122;5.404;2023-07-24T02:33:18;100431.88;;;17.30;100.00
71974;BME280;59840;52.122;5.404;2023-07-24T02:35:52;100429.19;;;17.30;100.00
71974;BME280;59840;52.122;5.404;2023-07-24T02:38:23;100428.56;;;17.33;100.00
71974;BME280;59840;52.122;5.404;2023-07-24T02:40:54;100428.56;;;17.33;100.00
71974;BME280;59840;52.122;5.404;2023-07-24T02:43:29;100424.81;;;17.34;100.00
71974;BME280;59840;52.122;5.404;2023-07-24T02:46:09;100417.91;;;17.33;100.00
71974;BME280;59840;52.122;5.404;2023-07-24T02:48:46;100419.78;;;17.33;100.00
71974;BME280;59840;52.122;5.404;2023-07-24T02:51:15;100414.78;;;17.31;100.00
71974;BME280;59840;52.122;5.404;2023-07-24T02:53:54;100421.69;;;17.32;100.00
71974;BME280;59840;52.122;5.404;2023-07-24T02:56:26;100408.38;;;17.32;100.00
71974;BME280;59840;52.122;5.404;2023-07-24T02:59:03;100408.03;;;17.34;100.00
71974;BME280;59840;52.122;5.404;2023-07-24T03:01:40;100407.25;;;17.33;100.00
71974;BME280;59840;52.122;5.404;2023-07-24T03:04:12;100415.75;;;17.35;100.00
71974;BME280;59840;52.122;5.404;2023-07-24T03:06:42;100412.78;;;17.37;100.00
71974;BME280;59840;52.122;5.404;2023-07-24T03:09:09;100414.66;;;17.36;100.00
71974;BME280;59840;52.122;5.404;2023-07-24T03:11:41;100400.81;;;17.34;100.00
71974;BME280;59840;52.122;5.404;2023-07-24T03:14:11;100400.53;;;17.36;100.00
71974;BME280;59840;52.122;5.404;2023-07-24T03:16:39;100405.06;;;17.35;100.00
71974;BME280;59840;52.122;5.404;2023-07-24T03:19:06;100404.91;;;17.32;100.00
71974;BME280;59840;52.122;5.404;2023-07-24T03:21:37;100405.69;;;17.32;100.00
71974;BME280;59840;52.122;5.404;2023-07-24T03:24:04;100392.03;;;17.34;100.00
71974;BME280;59840;52.122;5.404;2023-07-24T03:26:31;100389.38;;;17.34;100.00
71974;BME280;59840;52.122;5.404;2023-07-24T03:29:01;100377.44;;;17.31;100.00
71974;BME280;59840;52.122;5.404;2023-07-24T03:31:33;100383.56;;;17.32;100.00
71974;BME280;59840;52.122;5.404;2023-07-24T03:34:00;100394.84;;;17.29;100.00
71974;BME280;59840;52.122;5.404;2023-07-24T03:36:30;100391.38;;;17.28;100.00
71974;BME280;59840;52.122;5.404;2023-07-24T03:38:58;100390.59;;;17.28;100.00
71974;BME280;59840;52.122;5.404;2023-07-24T03:41:30;100393.25;;;17.28;100.00
71974;BME280;59840;52.122;5.404;2023-07-24T03:43:59;100390.41;;;17.24;100.00
71974;BME280;59840;52.122;5.404;2023-07-24T03:46:26;100399.97;;;17.25;100.00
71974;BME280;59840;52.122;5.404;2023-07-24T03:48:54;100392.06;;;17.20;100.00
71974;BME280;59840;52.122;5.404;2023-07-24T03:51:23;100388.91;;;17.18;100.00
71974;BME280;59840;52.122;5.404;2023-07-24T03:53:50;100387.03;;;17.19;100.00
71974;BME280;59840;52.122;5.404;2023-07-24T03:56:20;100390.00;;;17.17;100.00
71974;BME280;59840;52.122;5.404;2023-07-24T03:58:47;100392.97;;;17.16;100.00
71974;BME280;59840;52.122;5.404;2023-07-24T04:01:14;100390.91;;;17.13;100.00
71974;BME280;59840;52.122;5.404;2023-07-24T04:03:41;100384.97;;;17.16;100.00
71974;BME280;59840;52.122;5.404;2023-07-24T04:06:13;100385.56;;;17.13;100.00
71974;BME280;59840;52.122;5.404;2023-07-24T04:08:51;100386.34;;;17.13;100.00
71974;BME280;59840;52.122;5.404;2023-07-24T04:11:18;100382.09;;;17.12;100.00
71974;BME280;59840;52.122;5.404;2023-07-24T04:13:45;100383.19;;;17.11;100.00
71974;BME280;59840;52.122;5.404;2023-07-24T04:16:13;100383.50;;;17.09;100.00
71974;BME280;59840;52.122;5.404;2023-07-24T04:18:43;100393.66;;;17.07;100.00
71974;BME280;59840;52.122;5.404;2023-07-24T04:21:10;100382.22;;;17.07;100.00
71974;BME280;59840;52.122;5.404;2023-07-24T04:23:36;100382.22;;;17.07;100.00
71974;BME280;59840;52.122;5.404;2023-07-24T04:26:03;100385.47;;;17.04;100.00
71974;BME280;59840;52.122;5.404;2023-07-24T04:28:30;100386.25;;;17.04;100.00
71974;BME280;59840;52.122;5.404;2023-07-24T04:31:00;100384.97;;;17.02;100.00
71974;BME280;59840;52.122;5.404;2023-07-24T04:33:28;100382.91;;;16.99;100.00
71974;BME280;59840;52.122;5.404;2023-07-24T04:35:57;100395.44;;;16.98;100.00
71974;BME280;59840;52.122;5.404;2023-07-24T04:38:27;100392.00;;;16.98;100.00
71974;BME280;59840;52.122;5.404;2023-07-24T04:41:01;100390.09;;;16.98;100.00
71974;BME280;59840;52.122;5.404;2023-07-24T04:43:31;100397.03;;;16.99;100.00
71974;BME280;59840;52.122;5.404;2023-07-24T04:45:58;100396.22;;;16.99;100.00
71974;BME280;59840;52.122;5.404;2023-07-24T04:48:27;100404.72;;;17.01;100.00
71974;BME280;59840;52.122;5.404;2023-07-24T04:50:55;100405.34;;;16.98;100.00
71974;BME280;59840;52.122;5.404;2023-07-24T04:53:25;100399.38;;;17.01;100.00
71974;BME280;59840;52.122;5.404;2023-07-24T04:56:20;100388.06;;;16.95;100.00
71974;BME280;59840;52.122;5.404;2023-07-24T04:58:45;100391.03;;;16.94;100.00
71974;BME280;59840;52.122;5.404;2023-07-24T05:01:17;100394.28;;;16.91;100.00
71974;BME280;59840;52.122;5.404;2023-07-24T05:03:47;100397.25;;;16.89;100.00
71974;BME280;59840;52.122;5.404;2023-07-24T05:06:16;100399.91;;;16.89;100.00
71974;BME280;59840;52.122;5.404;2023-07-24T05:08:43;100395.88;;;16.92;100.00
71974;BME280;59840;52.122;5.404;2023-07-24T05:11:12;100398.22;;;16.93;100.00
71974;BME280;59840;52.122;5.404;2023-07-24T05:13:41;100391.31;;;16.92;100.00
71974;BME280;59840;52.122;5.404;2023-07-24T05:16:08;100392.59;;;16.95;100.00
71974;BME280;59840;52.122;5.404;2023-07-24T05:18:35;100389.34;;;16.98;100.00
71974;BME280;59840;52.122;5.404;2023-07-24T05:21:04;100389.94;;;16.95;100.00
71974;BME280;59840;52.122;5.404;2023-07-24T05:23:36;100392.31;;;16.96;100.00
71974;BME280;59840;52.122;5.404;2023-07-24T05:26:03;100396.84;;;16.96;100.00
71974;BME280;59840;52.122;5.404;2023-07-24T05:28:31;100396.84;;;16.96;100.00
71974;BME280;59840;52.122;5.404;2023-07-24T05:31:05;100401.38;;;16.95;100.00
71974;BME280;59840;52.122;5.404;2023-07-24T05:33:32;100396.84;;;16.96;100.00
71974;BME280;59840;52.122;5.404;2023-07-24T05:36:03;100403.13;;;17.00;100.00
71974;BME280;59840;52.122;5.404;2023-07-24T05:38:30;100402.69;;;16.98;100.00
71974;BME280;59840;52.122;5.404;2023-07-24T05:40:59;100396.22;;;16.99;100.00
71974;BME280;59840;52.122;5.404;2023-07-24T05:43:27;100393.56;;;16.99;100.00
71974;BME280;59840;52.122;5.404;2023-07-24T05:45:55;100400.19;;;17.01;100.00
71974;BME280;59840;52.122;5.404;2023-07-24T05:48:23;100397.50;;;17.01;100.00
71974;BME280;59840;52.122;5.404;2023-07-24T05:50:50;100395.94;;;17.00;100.00
71974;BME280;59840;52.122;5.404;2023-07-24T05:53:17;100395.16;;;17.00;100.00
71974;BME280;59840;52.122;5.404;2023-07-24T05:55:44;100395.94;;;17.00;100.00
71974;BME280;59840;52.122;5.404;2023-07-24T05:58:11;100404.91;;;17.04;100.00
71974;BME280;59840;52.122;5.404;2023-07-24T06:00:40;100410.16;;;17.09;100.00
71974;BME280;59840;52.122;5.404;2023-07-24T06:03:10;100402.94;;;17.10;100.00
71974;BME280;59840;52.122;5.404;2023-07-24T06:05:37;100405.31;;;17.12;100.00
71974;BME280;59840;52.122;5.404;2023-07-24T06:08:06;100412.41;;;17.16;100.00
71974;BME280;59840;52.122;5.404;2023-07-24T06:10:35;100405.72;;;17.19;100.00
71974;BME280;59840;52.122;5.404;2023-07-24T06:13:02;100410.75;;;17.20;100.00
71974;BME280;59840;52.122;5.404;2023-07-24T06:16:01;100418.34;;;17.27;100.00
71974;BME280;59840;52.122;5.404;2023-07-24T06:18:27;100412.78;;;17.37;100.00
71974;BME280;59840;52.122;5.404;2023-07-24T06:20:54;100416.63;;;17.45;100.00
71974;BME280;59840;52.122;5.404;2023-07-24T06:23:21;100412.25;;;17.49;100.00
71974;BME280;59840;52.122;5.404;2023-07-24T06:25:47;100416.50;;;17.50;100.00
71974;BME280;59840;52.122;5.404;2023-07-24T06:28:14;100413.84;;;17.50;100.00
71974;BME280;59840;52.122;5.404;2023-07-24T06:30:40;100411.38;;;17.53;100.00
71974;BME280;59840;52.122;5.404;2023-07-24T06:33:07;100423.13;;;17.52;100.00
71974;BME280;59840;52.122;5.404;2023-07-24T06:35:34;100417.50;;;17.54;100.00
71974;BME280;59840;52.122;5.404;2023-07-24T06:38:01;100416.28;;;17.60;100.00
71974;BME280;59840;52.122;5.404;2023-07-24T06:40:27;100408.00;;;17.61;100.00
71974;BME280;59840;52.122;5.404;2023-07-24T06:42:54;100413.25;;;17.66;100.00
71974;BME280;59840;52.122;5.404;2023-07-24T06:45:21;100420.81;;;17.73;100.00
71974;BME280;59840;52.122;5.404;2023-07-24T06:47:48;100417.84;;;17.74;100.00
71974;BME280;59840;52.122;5.404;2023-07-24T06:50:15;100415.84;;;17.80;99.81
71974;BME280;59840;52.122;5.404;2023-07-24T06:52:41;100412.88;;;17.82;100.00
71974;BME280;59840;52.122;5.404;2023-07-24T06:55:08;100425.31;;;17.86;99.26
71974;BME280;59840;52.122;5.404;2023-07-24T06:57:37;100427.75;;;17.96;99.01
71974;BME280;59840;52.122;5.404;2023-07-24T07:00:04;100419.75;;;17.96;98.03
71974;BME280;59840;52.122;5.404;2023-07-24T07:02:31;100413.81;;;17.99;97.74
71974;BME280;59840;52.122;5.404;2023-07-24T07:04:58;100413.44;;;17.92;96.92
71974;BME280;59840;52.122;5.404;2023-07-24T07:07:25;100416.00;;;17.97;97.26
71974;BME280;59840;52.122;5.404;2023-07-24T07:09:52;100412.56;;;18.05;98.04
71974;BME280;59840;52.122;5.404;2023-07-24T07:12:18;100417.00;;;18.10;97.13
71974;BME280;59840;52.122;5.404;2023-07-24T07:14:47;100415.31;;;18.14;97.60
71974;BME280;59840;52.122;5.404;2023-07-24T07:17:14;100423.00;;;18.16;96.69
71974;BME280;59840;52.122;5.404;2023-07-24T07:19:40;100410.44;;;18.16;96.09
71974;BME280;59840;52.122;5.404;2023-07-24T07:22:07;100423.44;;;18.09;95.85
71974;BME280;59840;52.122;5.404;2023-07-24T07:24:33;100417.91;;;18.05;95.57
71974;BME280;59840;52.122;5.404;2023-07-24T07:27:00;100432.22;;;18.09;95.23
71974;BME280;59840;52.122;5.404;2023-07-24T07:29:27;100426.78;;;18.15;94.70
71974;BME280;59840;52.122;5.404;2023-07-24T07:31:53;100432.06;;;18.28;94.34
71974;BME280;59840;52.122;5.404;2023-07-24T07:34:20;100428.31;;;18.38;93.15
71974;BME280;59840;52.122;5.404;2023-07-24T07:36:46;100422.53;;;18.45;92.70
71974;BME280;59840;52.122;5.404;2023-07-24T07:39:13;100411.50;;;18.37;91.16
71974;BME280;59840;52.122;5.404;2023-07-24T07:41:40;100411.03;;;18.35;91.41
71974;BME280;59840;52.122;5.404;2023-07-24T07:44:06;100412.34;;;18.47;91.57
71974;BME280;59840;52.122;5.404;2023-07-24T07:46:33;100402.19;;;18.57;92.50
71974;BME280;59840;52.122;5.404;2023-07-24T07:48:59;100398.63;;;18.62;91.27
71974;BME280;59840;52.122;5.404;2023-07-24T07:51:26;100405.72;;;18.66;90.54
71974;BME280;59840;52.122;5.404;2023-07-24T07:53:53;100400.53;;;18.70;90.60
71974;BME280;59840;52.122;5.404;2023-07-24T07:56:20;100392.66;;;18.73;91.22
71974;BME280;59840;52.122;5.404;2023-07-24T07:58:46;100397.41;;;18.77;90.36
71974;BME280;59840;52.122;5.404;2023-07-24T08:01:13;100399.47;;;18.80;90.70
71974;BME280;59840;52.122;5.404;2023-07-24T08:03:39;100394.72;;;18.77;90.50
71974;BME280;59840;52.122;5.404;2023-07-24T08:06:06;100395.19;;;18.70;89.24
71974;BME280;59840;52.122;5.404;2023-07-24T08:08:33;100393.06;;;18.58;90.08
71974;BME280;59840;52.122;5.404;2023-07-24T08:11:04;100391.94;;;18.51;90.21
71974;BME280;59840;52.122;5.404;2023-07-24T08:13:31;100384.84;;;18.46;90.15
71974;BME280;59840;52.122;5.404;2023-07-24T08:15:58;100393.94;;;18.45;89.60
71974;BME280;59840;52.122;5.404;2023-07-24T08:18:25;100396.84;;;18.57;90.00
71974;BME280;59840;52.122;5.404;2023-07-24T08:20:52;100393.47;;;18.74;89.99
71974;BME280;59840;52.122;5.404;2023-07-24T08:23:19;100386.44;;;18.87;89.49
71974;BME280;59840;52.122;5.404;2023-07-24T08:25:53;100389.94;;;18.96;88.96
71974;BME280;59840;52.122;5.404;2023-07-24T08:28:20;100394.50;;;19.04;88.01
71974;BME280;59840;52.122;5.404;2023-07-24T08:30:56;100390.56;;;19.01;88.13
71974;BME280;59840;52.122;5.404;2023-07-24T08:33:24;100384.25;;;19.06;87.72
71974;BME280;59840;52.122;5.404;2023-07-24T08:36:02;100397.03;;;19.09;87.22
71974;BME280;59840;52.122;5.404;2023-07-24T08:38:28;100401.56;;;19.08;86.25
71974;BME280;59840;52.122;5.404;2023-07-24T08:41:14;100402.69;;;18.99;86.22
71974;BME280;59840;52.122;5.404;2023-07-24T08:43:42;100406.28;;;18.94;86.29
71974;BME280;59840;52.122;5.404;2023-07-24T08:46:09;100404.69;;;18.93;86.64
71974;BME280;59840;52.122;5.404;2023-07-24T08:48:40;100401.88;;;18.98;87.64
71974;BME280;59840;52.122;5.404;2023-07-24T08:51:09;100395.31;;;19.04;87.38
71974;BME280;59840;52.122;5.404;2023-07-24T08:53:38;100387.94;;;19.27;87.89
71974;BME280;59840;52.122;5.404;2023-07-24T08:56:06;100399.47;;;19.54;86.22
71974;BME280;59840;52.122;5.404;2023-07-24T08:58:37;100397.75;;;19.75;85.03
71974;BME280;59840;52.122;5.404;2023-07-24T09:01:07;100402.59;;;19.99;84.43
71974;BME280;59840;52.122;5.404;2023-07-24T09:03:35;100400.72;;;19.99;82.67
71974;BME280;59840;52.122;5.404;2023-07-24T09:06:09;100394.34;;;20.21;83.48
71974;BME280;59840;52.122;5.404;2023-07-24T09:08:38;100383.47;;;20.26;82.22
71974;BME280;59840;52.122;5.404;2023-07-24T09:11:06;100372.44;;;20.28;82.47
71974;BME280;59840;52.122;5.404;2023-07-24T09:13:35;100377.75;;;20.45;82.53
71974;BME280;59840;52.122;5.404;2023-07-24T09:16:02;100378.78;;;20.70;82.34
71974;BME280;59840;52.122;5.404;2023-07-24T09:18:42;100378.53;;;20.84;82.16
71974;BME280;59840;52.122;5.404;2023-07-24T09:21:10;100363.47;;;20.70;79.99
71974;BME280;59840;52.122;5.404;2023-07-24T09:23:40;100369.28;;;20.72;80.37
71974;BME280;59840;52.122;5.404;2023-07-24T09:26:07;100365.75;;;20.51;79.90
71974;BME280;59840;52.122;5.404;2023-07-24T09:28:34;100377.16;;;20.31;81.46
71974;BME280;59840;52.122;5.404;2023-07-24T09:31:01;100370.72;;;20.15;81.38
71974;BME280;59840;52.122;5.404;2023-07-24T09:33:39;100365.28;;;19.94;81.31
71974;BME280;59840;52.122;5.404;2023-07-24T09:36:07;100370.19;;;19.74;81.48
71974;BME280;59840;52.122;5.404;2023-07-24T09:38:36;100351.31;;;19.62;82.36
71974;BME280;59840;52.122;5.404;2023-07-24T09:41:03;100355.38;;;19.51;81.68
71974;BME280;59840;52.122;5.404;2023-07-24T09:43:30;100342.44;;;19.45;82.08
71974;BME280;59840;52.122;5.404;2023-07-24T09:46:00;100341.81;;;19.48;82.67
71974;BME280;59840;52.122;5.404;2023-07-24T09:48:27;100341.97;;;19.42;81.48
71974;BME280;59840;52.122;5.404;2023-07-24T09:50:59;100350.47;;;19.45;81.63
71974;BME280;59840;52.122;5.404;2023-07-24T09:53:51;100355.88;;;19.53;82.17
71974;BME280;59840;52.122;5.404;2023-07-24T09:56:20;100368.47;;;19.61;82.30
71974;BME280;59840;52.122;5.404;2023-07-24T09:59:05;100371.13;;;19.61;80.86
71974;BME280;59840;52.122;5.404;2023-07-24T10:01:32;100367.50;;;19.83;80.01
71974;BME280;59840;52.122;5.404;2023-07-24T10:04:00;100366.53;;;19.96;81.24
71974;BME280;59840;52.122;5.404;2023-07-24T10:06:28;100360.22;;;20.10;81.00
71974;BME280;59840;52.122;5.404;2023-07-24T10:08:57;100360.16;;;20.18;83.70
71974;BME280;59840;52.122;5.404;2023-07-24T10:11:24;100368.53;;;20.17;78.58
71974;BME280;59840;52.122;5.404;2023-07-24T10:13:53;100372.97;;;20.04;78.82
71974;BME280;59840;52.122;5.404;2023-07-24T10:16:20;100368.25;;;20.01;78.31
71974;BME280;59840;52.122;5.404;2023-07-24T10:18:47;100363.34;;;20.12;79.12
71974;BME280;59840;52.122;5.404;2023-07-24T10:21:14;100348.00;;;20.38;80.89
71974;BME280;59840;52.122;5.404;2023-07-24T10:23:45;100352.75;;;20.70;79.31
71974;BME280;59840;52.122;5.404;2023-07-24T10:26:13;100338.09;;;20.68;77.28
71974;BME280;59840;52.122;5.404;2023-07-24T10:28:42;100340.13;;;20.42;77.10
71974;BME280;59840;52.122;5.404;2023-07-24T10:31:22;100339.19;;;20.20;77.25
71974;BME280;59840;52.122;5.404;2023-07-24T10:33:50;100341.91;;;20.12;78.29
71974;BME280;59840;52.122;5.404;2023-07-24T10:36:20;100341.47;;;20.10;79.86
71974;BME280;59840;52.122;5.404;2023-07-24T10:38:55;100340.84;;;20.04;77.79
71974;BME280;59840;52.122;5.404;2023-07-24T10:41:34;100345.69;;;20.11;77.42
71974;BME280;59840;52.122;5.404;2023-07-24T10:44:01;100332.88;;;20.25;76.43
71974;BME280;59840;52.122;5.404;2023-07-24T10:46:39;100338.38;;;20.37;77.50
71974;BME280;59840;52.122;5.404;2023-07-24T10:49:08;100335.47;;;20.51;76.13
71974;BME280;59840;52.122;5.404;2023-07-24T10:51:35;100321.28;;;20.50;74.42
71974;BME280;59840;52.122;5.404;2023-07-24T10:54:04;100334.44;;;20.72;76.24
71974;BME280;59840;52.122;5.404;2023-07-24T10:56:32;100331.81;;;20.85;73.83
71974;BME280;59840;52.122;5.404;2023-07-24T10:59:03;100327.38;;;20.68;74.09
71974;BME280;59840;52.122;5.404;2023-07-24T11:01:31;100322.78;;;20.68;76.02
71974;BME280;59840;52.122;5.404;2023-07-24T11:03:59;100330.19;;;20.71;74.74
71974;BME280;59840;52.122;5.404;2023-07-24T11:06:27;100330.03;;;20.68;74.37
71974;BME280;59840;52.122;5.404;2023-07-24T11:08:55;100330.88;;;20.60;75.18
71974;BME280;59840;52.122;5.404;2023-07-24T11:11:30;100326.28;;;20.60;75.41
71974;BME280;59840;52.122;5.404;2023-07-24T11:13:58;100339.38;;;20.62;73.79
71974;BME280;59840;52.122;5.404;2023-07-24T11:16:24;100326.28;;;20.60;74.67
71974;BME280;59840;52.122;5.404;2023-07-24T11:18:51;100327.25;;;20.56;74.64
71974;BME280;59840;52.122;5.404;2023-07-24T11:21:23;100326.66;;;20.50;74.86
71974;BME280;59840;52.122;5.404;2023-07-24T11:23:53;100335.44;;;20.59;76.20
71974;BME280;59840;52.122;5.404;2023-07-24T11:26:21;100338.69;;;20.73;76.13
71974;BME280;59840;52.122;5.404;2023-07-24T11:28:49;100338.06;;;20.97;75.24
71974;BME280;59840;52.122;5.404;2023-07-24T11:31:16;100336.03;;;21.15;75.49
71974;BME280;59840;52.122;5.404;2023-07-24T11:33:47;100340.53;;;21.32;74.98
71974;BME280;59840;52.122;5.404;2023-07-24T11:36:15;100343.06;;;21.49;74.10
71974;BME280;59840;52.122;5.404;2023-07-24T11:38:42;100356.53;;;21.61;73.54
71974;BME280;59840;52.122;5.404;2023-07-24T11:41:12;100354.31;;;21.63;74.62
71974;BME280;59840;52.122;5.404;2023-07-24T11:43:48;100356.56;;;21.40;73.31
71974;BME280;59840;52.122;5.404;2023-07-24T11:46:25;100354.25;;;21.10;75.05
71974;BME280;59840;52.122;5.404;2023-07-24T11:48:53;100352.91;;;20.95;76.92
71974;BME280;59840;52.122;5.404;2023-07-24T11:51:23;100357.72;;;20.81;76.18
71974;BME280;59840;52.122;5.404;2023-07-24T11:53:51;100356.25;;;20.62;78.32
71974;BME280;59840;52.122;5.404;2023-07-24T11:56:19;100363.13;;;20.43;79.61
71974;BME280;59840;52.122;5.404;2023-07-24T11:58:46;100359.22;;;20.23;80.77
71974;BME280;59840;52.122;5.404;2023-07-24T12:01:12;100351.50;;;20.13;81.64
71974;BME280;59840;52.122;5.404;2023-07-24T12:03:40;100350.13;;;20.06;81.47
71974;BME280;59840;52.122;5.404;2023-07-24T12:06:14;100355.34;;;20.03;80.98
71974;BME280;59840;52.122;5.404;2023-07-24T12:08:42;100347.00;;;20.04;81.33
71974;BME280;59840;52.122;5.404;2023-07-24T12:11:17;100349.94;;;20.12;81.52
71974;BME280;59840;52.122;5.404;2023-07-24T12:13:47;100351.97;;;20.15;80.64
71974;BME280;59840;52.122;5.404;2023-07-24T12:16:16;100350.72;;;20.21;79.40
71974;BME280;59840;52.122;5.404;2023-07-24T12:18:43;100342.97;;;20.28;79.55
71974;BME280;59840;52.122;5.404;2023-07-24T12:21:09;100338.53;;;20.32;79.29
71974;BME280;59840;52.122;5.404;2023-07-24T12:23:36;100330.81;;;20.39;77.58
71974;BME280;59840;52.122;5.404;2023-07-24T12:26:03;100332.66;;;20.47;79.37
71974;BME280;59840;52.122;5.404;2023-07-24T12:28:29;100327.88;;;20.61;76.56
71974;BME280;59840;52.122;5.404;2023-07-24T12:30:56;100330.88;;;20.60;76.99
71974;BME280;59840;52.122;5.404;2023-07-24T12:33:23;100336.50;;;20.67;77.08
71974;BME280;59840;52.122;5.404;2023-07-24T12:35:50;100334.91;;;20.74;76.18
71974;BME280;59840;52.122;5.404;2023-07-24T12:38:18;100334.69;;;20.80;78.01
71974;BME280;59840;52.122;5.404;2023-07-24T12:40:44;100334.97;;;20.87;78.16
71974;BME280;59840;52.122;5.404;2023-07-24T12:43:11;100341.91;;;20.88;78.33
71974;BME280;59840;52.122;5.404;2023-07-24T12:45:37;100333.16;;;20.79;77.63
71974;BME280;59840;52.122;5.404;2023-07-24T12:48:04;100336.69;;;20.62;78.50
71974;BME280;59840;52.122;5.404;2023-07-24T12:50:31;100337.13;;;20.43;79.47
71974;BME280;59840;52.122;5.404;2023-07-24T12:52:57;100342.94;;;20.36;82.37
71974;BME280;59840;52.122;5.404;2023-07-24T12:55:26;100349.56;;;20.30;82.07
71974;BME280;59840;52.122;5.404;2023-07-24T12:57:53;100366.22;;;19.89;84.44
71974;BME280;59840;52.122;5.404;2023-07-24T13:00:20;100356.81;;;19.40;91.25
71974;BME280;59840;52.122;5.404;2023-07-24T13:02:47;100359.56;;;19.09;94.90
71974;BME280;59840;52.122;5.404;2023-07-24T13:05:14;100365.53;;;19.06;98.02
71974;BME280;59840;52.122;5.404;2023-07-24T13:07:41;100356.13;;;19.00;98.42
71974;BME280;59840;52.122;5.404;2023-07-24T13:10:08;100338.31;;;18.87;98.02
71974;BME280;59840;52.122;5.404;2023-07-24T13:12:35;100337.34;;;18.83;100.00
71974;BME280;59840;52.122;5.404;2023-07-24T13:15:02;100343.19;;;18.85;100.00
71974;BME280;59840;52.122;5.404;2023-07-24T13:17:28;100353.72;;;18.81;100.00
71974;BME280;59840;52.122;5.404;2023-07-24T13:19:56;100364.88;;;18.83;100.00